Time;durP1;ratioP1;P1;durP2;ratioP2;P2;SDS_P1;SDS_P2;PMS_P1;PMS_P2;Temp;Humidity;BMP_temperature;BMP_pressure;BME280_temperature;BME280_humidity;BME280_pressure;Samples;Min_cycle;Max_cycle;Signal;HPM_P1;HPM_P2
2022/05/27 00:00:15;;;;;;;6.28;3.72;;;;;;;;;;6155735;23;20009;-70
2022/05/27 00:02:41;;;;;;;6.13;4.22;;;;;;;;;;6155852;23;20077;-72
2022/05/27 00:05:07;;;;;;;5.47;3.30;;;;;;;;;;6155689;23;20001;-71
2022/05/27 00:07:33;;;;;;;14.73;4.65;;;;;;;;;;6155674;23;20441;-72
2022/05/27 00:09:59;;;;;;;6.03;3.50;;;;;;;;;;6155761;23;20068;-70
2022/05/27 00:12:25;;;;;;;4.85;3.28;;;;;;;;;;6156234;23;20374;-71
2022/05/27 00:14:51;;;;;;;4.32;3.05;;;;;;;;;;6155622;23;20024;-71
2022/05/27 00:17:17;;;;;;;7.22;3.88;;;;;;;;;;6155895;23;20072;-72
2022/05/27 00:19:43;;;;;;;8.85;3.33;;;;;;;;;;6155528;23;20484;-71
2022/05/27 00:22:10;;;;;;;7.40;3.55;;;;;;;;;;6156037;23;20321;-72
2022/05/27 00:24:36;;;;;;;5.88;3.30;;;;;;;;;;6155851;23;20307;-72
2022/05/27 00:27:02;;;;;;;6.32;3.38;;;;;;;;;;6155920;23;20010;-71
2022/05/27 00:29:29;;;;;;;5.22;3.13;;;;;;;;;;6155641;23;20001;-71
2022/05/27 00:31:55;;;;;;;4.05;3.35;;;;;;;;;;6155376;23;20017;-71
2022/05/27 00:34:21;;;;;;;8.27;3.85;;;;;;;;;;6155105;23;20029;-69
2022/05/27 00:36:46;;;;;;;7.88;4.50;;;538.50;2278.40;;;;;;6155396;23;20013;-67
2022/05/27 00:39:12;;;;;;;6.78;4.30;;;538.40;2304.00;;;;;;6155463;23;20002;-65
2022/05/27 00:41:41;;;;;;;9.27;4.75;;;538.40;2304.00;;;;;;6155656;23;20321;-65
2022/05/27 00:44:07;;;;;;;12.02;4.50;;;538.40;2304.00;;;;;;6155430;23;20012;-65
2022/05/27 00:46:34;;;;;;;8.07;4.50;;;538.30;2329.60;;;;;;6155515;23;19998;-66
2022/05/27 00:49:24;;;;;;;12.43;6.50;;;538.20;2329.60;;;;;;6128625;23;20009;-65
2022/05/27 00:52:01;;;;;;;9.10;5.05;;;538.20;2329.60;;;;;;6155498;23;20013;-72
2022/05/27 00:54:27;;;;;;;6.60;4.57;;;538.20;2329.60;;;;;;6155429;23;20025;-71
2022/05/27 00:57:09;;;;;;;6.05;3.67;;;538.30;2329.60;;;;;;6155723;23;20008;-69
2022/05/27 01:00:00;;;;;;;6.43;3.67;;;538.30;2329.60;;;;;;6129236;23;19998;-66
2022/05/27 01:02:28;;;;;;;6.63;3.05;;;538.30;2329.60;;;;;;6155290;23;20005;-64
2022/05/27 01:04:53;;;;;;;4.63;3.28;;;538.30;2329.60;;;;;;6155488;23;20433;-64
2022/05/27 01:07:19;;;;;;;6.05;3.40;;;538.00;2380.80;;;;;;6155449;23;20065;-65
2022/05/27 01:09:46;;;;;;;4.88;3.28;;;;;;;;;;6155374;23;20448;-64
2022/05/27 01:12:18;;;;;;;6.13;3.03;;;;;;;;;;6129265;23;20476;-64
2022/05/27 01:14:48;;;;;;;7.53;3.35;;;;;;;;;;6155592;23;20006;-72
2022/05/27 01:17:32;;;;;;;5.70;3.22;;;;;;;;;;6155458;23;19998;-67
2022/05/27 01:22:46;;;;;;;6.97;3.03;;;;;;;;;;6155171;23;20444;-69
2022/05/27 01:25:18;;;;;;;3.80;3.20;;;;;;;;;;6155333;23;20009;-67
2022/05/27 01:28:02;;;;;;;7.72;3.10;;;;;;;;;;6155303;23;20373;-66
2022/05/27 01:30:47;;;;;;;6.35;3.78;;;;;;;;;;6155044;23;20096;-69
2022/05/27 01:33:19;;;;;;;5.60;2.97;;;537.90;2380.80;;;;;;6155130;23;20033;-69
2022/05/27 01:35:54;;;;;;;5.03;3.33;;;537.90;2380.80;;;;;;6155536;23;20025;-66
2022/05/27 01:38:47;;;;;;;4.63;3.00;;;537.70;2406.40;;;;;;6155483;23;20009;-72
2022/05/27 01:41:26;;;;;;;5.05;3.03;;;537.70;2406.40;;;;;;6155262;23;20005;-72
2022/05/27 01:43:59;;;;;;;43.40;7.60;;;537.70;2406.40;;;;;;6155076;23;20475;-69
2022/05/27 01:46:40;;;;;;;4.68;3.50;;;;;;;;;;6156153;23;20100;-72
2022/05/27 01:49:09;;;;;;;5.38;3.60;;;;;;;;;;6157074;23;20002;-72
2022/05/27 01:51:45;;;;;;;4.00;2.75;;;;;;;;;;6156870;23;20017;-69
2022/05/27 01:54:24;;;;;;;6.53;3.33;;;;;;;;;;6157093;23;20325;-72
2022/05/27 01:56:53;;;;;;;4.80;3.47;;;;;;;;;;6157231;23;20130;-69
2022/05/27 01:59:30;;;;;;;5.15;3.53;;;;;;;;;;6156856;23;20422;-71
2022/05/27 02:02:04;;;;;;;5.72;3.42;;;;;;;;;;6157289;23;20001;-70
2022/05/27 02:04:33;;;;;;;4.45;3.30;;;;;;;;;;6157296;23;20325;-71
2022/05/27 02:07:02;;;;;;;7.90;3.20;;;;;;;;;;6156931;23;20400;-71
2022/05/27 02:09:34;;;;;;;4.05;3.20;;;;;;;;;;6156647;23;20001;-71
2022/05/27 02:12:03;;;;;;;6.93;3.30;;;;;;;;;;6157077;23;20056;-72
2022/05/27 02:14:38;;;;;;;4.32;3.25;;;;;;;;;;6156655;23;20005;-72
2022/05/27 02:17:08;;;;;;;6.28;3.40;;;537.80;2406.40;;;;;;6156761;23;20503;-69
2022/05/27 02:19:42;;;;;;;5.23;3.20;;;512.90;2380.80;;;;;;6156995;23;20001;-66
2022/05/27 02:22:16;;;;;;;5.68;3.45;;;512.90;2380.80;;;;;;6130562;23;20009;-68
2022/05/27 02:24:51;;;;;;;4.95;3.50;;;512.80;2380.80;;;;;;6157063;23;20337;-68
2022/05/27 02:27:21;;;;;;;4.18;3.10;;;512.90;2380.80;;;;;;6156856;23;20030;-65
2022/05/27 02:29:52;;;;;;;6.05;3.90;;;512.80;2380.80;;;;;;6156182;23;20012;-66
2022/05/27 02:35:07;;;;;;;13.07;8.30;;;512.90;2380.80;;;;;;6156323;23;20017;-67
2022/05/27 02:35:44;;;;;;;9.40;4.80;;;512.80;2380.80;;;;;;6037902;23;20015;-72
2022/05/27 02:38:11;;;;;;;12.45;4.82;;;512.80;2380.80;;;;;;6037823;23;20007;-72
2022/05/27 02:41:04;;;;;;;6.70;3.60;;;512.90;2380.80;;;;;;6037871;23;20007;-72
2022/05/27 02:43:35;;;;;;;6.00;3.25;;;512.90;2380.80;;;;;;6037735;23;20015;-72
2022/05/27 02:46:04;;;;;;;4.32;3.00;;;512.90;2380.80;;;;;;6037976;23;20023;-72
2022/05/27 02:48:47;;;;;;;11.60;3.72;;;512.90;2380.80;;;;;;6037873;23;20475;-72
2022/05/27 02:51:21;;;;;;;8.60;3.30;;;512.80;2380.80;;;;;;6037712;23;20093;-72
2022/05/27 02:54:02;;;;;;;7.78;3.53;;;512.80;2380.80;;;;;;6037723;23;20000;-72
2022/05/27 02:56:35;;;;;;;4.85;3.22;;;512.80;2380.80;;;;;;6037668;23;20012;-70
2022/05/27 02:59:02;;;;;;;5.38;3.58;;;512.90;2380.80;;;;;;6037260;23;20425;-72
2022/05/27 03:01:27;;;;;;;6.20;3.30;;;512.80;2380.80;;;;;;6037544;23;20467;-68
2022/05/27 03:03:53;;;;;;;11.50;3.60;;;512.80;2380.80;;;;;;6037610;23;20062;-72
2022/05/27 03:06:27;;;;;;;4.65;3.63;;;512.70;2380.80;;;;;;6037460;23;20083;-72
2022/05/27 03:09:20;;;;;;;6.30;3.88;;;512.70;2380.80;;;;;;6037638;23;20439;-71
2022/05/27 03:11:58;;;;;;;4.20;3.63;;;512.70;2380.80;;;;;;6080240;23;20070;-71
2022/05/27 03:14:42;;;;;;;5.55;3.83;;;512.60;2380.80;;;;;;6156144;23;20491;-71
2022/05/27 03:17:31;;;;;;;5.53;3.63;;;512.60;2380.80;;;;;;6156213;23;20072;-70
2022/05/27 03:20:00;;;;;;;5.22;3.58;;;;;;;;;;6156274;23;20006;-72
2022/05/27 03:22:29;;;;;;;5.13;3.35;;;;;;;;;;6130204;23;20084;-70
2022/05/27 03:25:16;;;;;;;3.92;2.67;;;;;;;;;;6156137;23;20012;-72
2022/05/27 03:28:12;;;;;;;6.60;3.22;;;512.90;2380.80;;;;;;6037383;23;20035;-72
2022/05/27 03:31:04;;;;;;;8.30;3.40;;;512.60;2380.80;;;;;;6036914;23;20023;-72
2022/05/27 03:33:51;;;;;;;17.38;4.97;;;512.70;2380.80;;;;;;6037510;23;20004;-71
2022/05/27 03:36:18;;;;;;;5.70;4.03;;;;;;;;;;6037454;23;20011;-72
2022/05/27 03:38:48;;;;;;;8.43;3.75;;;;;;;;;;6037281;23;20007;-72
2022/05/27 03:41:26;;;;;;;6.05;3.97;;;;;;;;;;6037123;23;20055;-72
2022/05/27 03:43:53;;;;;;;4.70;3.63;;;512.60;2380.80;;;;;;6037269;23;20018;-72
2022/05/27 03:46:31;;;;;;;8.45;3.63;;;512.50;2380.80;;;;;;6037373;23;20004;-72
2022/05/27 03:48:57;;;;;;;5.55;3.75;;;512.70;2380.80;;;;;;6037350;23;20007;-71
2022/05/27 03:51:27;;;;;;;5.45;3.42;;;512.80;2380.80;;;;;;6037191;23;20132;-72
2022/05/27 03:54:05;;;;;;;6.43;3.65;;;512.80;2380.80;;;;;;6037279;23;20014;-72
2022/05/27 03:56:33;;;;;;;5.10;3.90;;;512.80;2380.80;;;;;;6037272;23;20018;-72
2022/05/27 03:59:00;;;;;;;5.00;3.60;;;512.60;2380.80;;;;;;6037082;23;20008;-72
2022/05/27 04:01:29;;;;;;;6.35;3.45;;;512.80;2380.80;;;;;;6037114;23;20011;-72
2022/05/27 04:03:57;;;;;;;6.13;3.40;;;512.80;2380.80;;;;;;6054393;23;20001;-72
2022/05/27 04:06:23;;;;;;;4.30;3.30;;;512.90;2380.80;;;;;;6155421;23;20032;-69
2022/05/27 04:08:49;;;;;;;9.23;3.45;;;512.90;2380.80;;;;;;6156049;23;20001;-69
2022/05/27 04:11:14;;;;;;;8.10;3.80;;;537.70;2406.40;;;;;;6155725;23;20014;-71
2022/05/27 04:13:40;;;;;;;9.90;3.65;;;537.70;2406.40;;;;;;6155977;23;20085;-71
2022/05/27 04:16:06;;;;;;;7.75;3.90;;;;;;;;;;6155853;23;20311;-67
2022/05/27 04:18:32;;;;;;;6.75;3.50;;;;;;;;;;6155626;23;20006;-70
2022/05/27 04:20:58;;;;;;;7.65;4.57;;;;;;;;;;6155756;23;20032;-71
2022/05/27 04:23:24;;;;;;;3.78;3.38;;;;;;;;;;6155501;23;20460;-72
2022/05/27 04:25:50;;;;;;;6.50;4.25;;;;;;;;;;6155677;23;20373;-71
2022/05/27 04:28:17;;;;;;;6.38;4.22;;;537.90;2406.40;;;;;;6155675;23;20005;-72
2022/05/27 04:30:45;;;;;;;5.50;4.68;;;538.00;2406.40;;;;;;6155196;23;20075;-69
2022/05/27 04:33:11;;;;;;;8.45;4.43;;;538.00;2406.40;;;;;;6155696;23;19998;-72
2022/05/27 04:35:37;;;;;;;10.52;4.93;;;538.00;2406.40;;;;;;6155803;23;20005;-72
2022/05/27 04:38:03;;;;;;;14.13;6.35;;;538.10;2406.40;;;;;;6155348;23;20393;-66
2022/05/27 04:40:29;;;;;;;15.77;5.50;;;538.20;2406.40;;;;;;6155463;23;20069;-72
2022/05/27 04:42:55;;;;;;;10.82;5.57;;;538.20;2406.40;;;;;;6156058;23;20084;-72
2022/05/27 04:45:21;;;;;;;14.35;5.80;;;538.10;2406.40;;;;;;6155475;23;20064;-71
2022/05/27 04:47:47;;;;;;;13.50;5.85;;;;;;;;;;6155548;23;20001;-69
2022/05/27 04:50:14;;;;;;;22.13;5.45;;;;;;;;;;6155270;23;20012;-69
2022/05/27 04:52:40;;;;;;;11.82;5.47;;;;;;;;;;6155280;23;20006;-71
2022/05/27 04:55:08;;;;;;;9.32;4.68;;;;;;;;;;6155401;23;19997;-70
2022/05/27 04:57:35;;;;;;;26.10;6.97;;;;;;;;;;6155385;23;20078;-71
2022/05/27 05:00:04;;;;;;;9.75;4.93;;;;;;;;;;6155223;23;20080;-70
2022/05/27 05:02:30;;;;;;;10.55;5.00;;;;;;;;;;6155616;23;20024;-72
2022/05/27 05:04:56;;;;;;;10.68;5.50;;;;;;;;;;6155434;23;20030;-72
2022/05/27 05:07:25;;;;;;;10.07;5.68;;;538.50;2406.40;;;;;;6155169;23;20012;-72
2022/05/27 05:09:51;;;;;;;6.85;4.30;;;538.50;2406.40;;;;;;6155573;23;20010;-71
2022/05/27 05:12:22;;;;;;;5.18;4.30;;;538.50;2406.40;;;;;;6155650;23;20417;-71
2022/05/27 05:14:50;;;;;;;7.18;3.83;;;538.50;2406.40;;;;;;6155847;23;20060;-72
2022/05/27 05:17:16;;;;;;;7.75;3.85;;;;;;;;;;6155338;23;20006;-70
2022/05/27 05:19:42;;;;;;;18.50;5.28;;;;;;;;;;6155351;23;20002;-69
2022/05/27 05:22:08;;;;;;;24.23;5.82;;;;;;;;;;6156440;23;20048;-70
2022/05/27 05:24:34;;;;;;;7.13;4.00;;;;;;;;;;6157142;23;19997;-68
2022/05/27 05:27:00;;;;;;;9.60;4.40;;;;;;;;;;6157162;23;20001;-67
2022/05/27 05:29:26;;;;;;;10.63;4.78;;;;;;;;;;6156752;23;20004;-70
2022/05/27 05:31:52;;;;;;;9.20;4.72;;;;;;;;;;6156863;23;20021;-70
2022/05/27 05:34:18;;;;;;;7.63;4.45;;;;;;;;;;6157114;23;20072;-68
2022/05/27 05:36:45;;;;;;;7.70;4.63;;;;;;;;;;6156852;23;20005;-68
2022/05/27 05:39:12;;;;;;;5.88;4.13;;;;;;;;;;6157148;23;20080;-66
2022/05/27 05:41:39;;;;;;;7.53;4.25;;;;;;;;;;6130992;23;20009;-69
2022/05/27 05:44:06;;;;;;;9.20;4.38;;;;;;;;;;6156849;23;20016;-68
2022/05/27 05:46:34;;;;;;;10.60;4.50;;;;;;;;;;6157127;23;20005;-70
2022/05/27 05:49:00;;;;;;;16.55;5.45;;;;;;;;;;6156870;23;20009;-67
2022/05/27 05:51:26;;;;;;;12.88;4.93;;;;;;;;;;6156562;23;20013;-69
2022/05/27 05:53:54;;;;;;;11.20;5.72;;;;;;;;;;6157264;23;20040;-66
2022/05/27 05:56:20;;;;;;;41.13;7.97;;;;;;;;;;6156778;23;20001;-68
2022/05/27 05:58:48;;;;;;;18.40;6.57;;;;;;;;;;6156710;23;20002;-72
2022/05/27 06:01:14;;;;;;;14.23;5.28;;;;;;;;;;6156654;23;20014;-67
2022/05/27 06:03:40;;;;;;;13.88;4.82;;;;;;;;;;6156783;23;20004;-68
2022/05/27 06:06:06;;;;;;;14.85;5.97;;;;;;;;;;6156661;23;20437;-64
2022/05/27 06:08:33;;;;;;;11.52;5.20;;;;;;;;;;6130559;23;20005;-65
2022/05/27 06:10:59;;;;;;;25.95;7.72;;;;;;;;;;6156691;23;20413;-71
2022/05/27 06:13:26;;;;;;;15.35;6.50;;;;;;;;;;6156721;23;20002;-68
2022/05/27 06:15:52;;;;;;;12.45;7.57;;;;;;;;;;6156626;23;20429;-69
2022/05/27 06:18:19;;;;;;;15.85;8.13;;;;;;;;;;6156610;23;20002;-70
2022/05/27 06:20:45;;;;;;;17.30;8.45;;;;;;;;;;6156776;23;20009;-67
2022/05/27 06:23:11;;;;;;;31.88;10.00;;;;;;;;;;6156597;23;20088;-69
2022/05/27 06:25:38;;;;;;;27.73;10.85;;;;;;;;;;6156515;23;20393;-69
2022/05/27 06:36:40;;;;;;;21.17;9.77;;;;;;;;;;6066420;23;20022;-64
2022/05/27 06:39:10;;;;;;;18.70;9.25;;;;;;;;;;6066255;23;20003;-65
2022/05/27 06:41:36;;;;;;;20.92;8.38;;;;;;;;;;6042171;23;20367;-65
2022/05/27 06:44:03;;;;;;;17.20;8.25;;;;;;;;;;6042463;23;20042;-68
2022/05/27 06:46:29;;;;;;;22.88;9.02;;;;;;;;;;6066056;23;20304;-69
2022/05/27 06:48:55;;;;;;;16.48;7.28;;;;;;;;;;6066454;23;20458;-66
2022/05/27 06:51:21;;;;;;;17.50;7.93;;;;;;;;;;6066191;23;20037;-68
2022/05/27 06:53:47;;;;;;;14.80;7.03;;;;;;;;;;6066446;23;20090;-71
2022/05/27 06:56:14;;;;;;;28.85;10.30;;;;;;;;;;6066365;23;20007;-69
2022/05/27 06:58:40;;;;;;;19.83;6.70;;;;;;;;;;6066130;23;20066;-71
2022/05/27 07:01:07;;;;;;;12.00;6.28;;;;;;;;;;6066233;23;20120;-71
2022/05/27 07:03:34;;;;;;;10.20;5.20;;;;;;;;;;6045953;23;20423;-72
2022/05/27 07:06:00;;;;;;;26.88;6.50;;;;;;;;;;6156184;23;20010;-70
2022/05/27 07:08:26;;;;;;;15.52;5.45;;;;;;;;;;6156100;23;20414;-69
2022/05/27 07:10:52;;;;;;;17.90;6.72;;;;;;;;;;6156304;23;20429;-68
2022/05/27 07:13:18;;;;;;;17.42;6.43;;;;;;;;;;6156463;23;20329;-69
2022/05/27 07:15:44;;;;;;;10.18;5.60;;;;;;;;;;6155882;23;20116;-72
2022/05/27 07:18:11;;;;;;;9.25;5.25;;;;;;;;;;6156190;23;20000;-72
2022/05/27 07:20:38;;;;;;;21.27;6.40;;;;;;;;;;6156033;23;20005;-71
2022/05/27 07:23:05;;;;;;;22.55;6.57;;;;;;;;;;6156319;23;19998;-72
2022/05/27 07:25:34;;;;;;;30.17;8.73;;;;;;;;;;6156487;23;20012;-70
2022/05/27 07:28:01;;;;;;;17.70;9.02;;;;;;;;;;6156083;23;20114;-71
2022/05/27 07:30:27;;;;;;;26.52;8.88;;;;;;;;;;6155577;23;20092;-72
2022/05/27 07:32:53;;;;;;;32.95;9.10;;;;;;;;;;6155859;23;20014;-72
2022/05/27 07:35:20;;;;;;;84.38;14.43;;;;;;;;;;6156059;23;20492;-72
2022/05/27 07:37:46;;;;;;;31.17;8.23;;;;;;;;;;6156088;23;20050;-73
2022/05/27 07:40:12;;;;;;;24.55;7.05;;;;;;;;;;6156109;23;20010;-72
2022/05/27 07:42:39;;;;;;;30.77;8.18;;;;;;;;;;6156292;23;20017;-72
2022/05/27 07:45:06;;;;;;;12.57;5.45;;;;;;;;;;6155841;23;20010;-72
2022/05/27 07:47:33;;;;;;;17.10;5.10;;;;;;;;;;6155863;23;20302;-72
2022/05/27 07:49:59;;;;;;;9.77;4.93;;;;;;;;;;6155537;23;20464;-72
2022/05/27 07:52:25;;;;;;;9.07;5.03;;;;;;;;;;6156088;23;20041;-73
2022/05/27 07:54:54;;;;;;;18.33;6.38;;;;;;;;;;6155831;23;19998;-71
2022/05/27 07:57:26;;;;;;;15.10;5.45;;;;;;;;;;6156021;23;20002;-72
2022/05/27 07:59:55;;;;;;;18.92;6.95;;;;;;;;;;6155710;23;20013;-72
2022/05/27 08:02:24;;;;;;;11.90;4.50;;;;;;;;;;6155669;23;20077;-72
2022/05/27 08:04:50;;;;;;;6.95;4.22;;;;;;;;;;6155750;23;20002;-72
2022/05/27 08:07:17;;;;;;;10.68;4.35;;;;;;;;;;6155934;23;20337;-73
2022/05/27 08:09:43;;;;;;;7.38;4.30;;;;;;;;;;6155662;23;20088;-73
2022/05/27 08:12:09;;;;;;;14.63;4.93;;;;;;;;;;6155806;23;20329;-71
2022/05/27 08:14:35;;;;;;;6.63;3.80;;;;;;;;;;6129187;23;20012;-71
2022/05/27 08:17:01;;;;;;;10.57;4.80;;;;;;;;;;6155957;23;20002;-67
2022/05/27 08:19:27;;;;;;;6.03;3.70;;;;;;;;;;6155594;23;20029;-72
2022/05/27 08:21:54;;;;;;;10.05;4.07;;;;;;;;;;6155564;23;20006;-72
2022/05/27 08:24:20;;;;;;;5.20;3.58;;;;;;;;;;6155501;23;20077;-73
2022/05/27 08:26:49;;;;;;;12.32;4.82;;;;;;;;;;6155480;23;20429;-72
2022/05/27 08:29:15;;;;;;;6.25;4.03;;;;;;;;;;6155586;23;20005;-73
2022/05/27 08:31:42;;;;;;;10.23;5.05;;;;;;;;;;6155155;23;20095;-73
2022/05/27 08:39:42;;;;;;;15.63;4.38;;;;;;;;;;6155218;23;20016;-66
2022/05/27 08:42:27;;;;;;;12.63;4.00;;;;;;;;;;6155674;23;20009;-72
2022/05/27 08:44:56;;;;;;;6.93;3.70;;;;;;;;;;6155270;23;20010;-70
2022/05/27 08:47:25;;;;;;;14.40;4.78;;;;;;;;;;6155327;23;20056;-69
2022/05/27 08:50:11;;;;;;;28.27;6.32;;;;;;;;;;6155075;23;20008;-69
2022/05/27 08:52:48;;;;;;;8.73;3.53;;;;;;;;;;6036546;23;20480;-73
2022/05/27 09:01:04;;;;;;;8.38;4.03;;;;;;;;;;6038424;23;20021;-72
2022/05/27 09:03:34;;;;;;;11.20;4.47;;;;;;;;;;6038640;23;20082;-72
2022/05/27 09:06:02;;;;;;;10.35;4.68;;;;;;;;;;6038496;23;20048;-69
2022/05/27 09:08:30;;;;;;;15.10;5.35;;;;;;;;;;6038443;23;20007;-73
2022/05/27 09:10:59;;;;;;;19.35;6.25;;;;;;;;;;6037908;23;20019;-72
2022/05/27 09:13:31;;;;;;;13.70;4.18;;;;;;;;;;6038365;23;20007;-72
2022/05/27 09:16:00;;;;;;;8.77;4.10;;;;;;;;;;6014421;23;20003;-72
2022/05/27 09:18:26;;;;;;;14.07;5.35;;;;;;;;;;6038440;23;20012;-65
2022/05/27 09:21:05;;;;;;;10.65;4.53;;;;;;;;;;6038393;23;20041;-66
2022/05/27 09:23:36;;;;;;;15.15;5.00;;;;;;;;;;6038272;23;20015;-71
2022/05/27 09:26:06;;;;;;;21.75;4.45;;;;;;;;;;6038367;23;20071;-72
2022/05/27 09:28:38;;;;;;;6.50;3.80;;;;;;;;;;6040746;23;20003;-67
2022/05/27 09:31:06;;;;;;;14.63;5.18;;;;;;;;;;6156882;23;20507;-70
2022/05/27 09:33:33;;;;;;;15.35;4.75;;;;;;;;;;6157401;23;19998;-70
2022/05/27 09:36:02;;;;;;;10.60;3.78;;;;;;;;;;6157003;23;20002;-73
2022/05/27 09:38:30;;;;;;;22.17;5.38;;;;;;;;;;6157276;23;19998;-73
2022/05/27 09:41:03;;;;;;;65.13;9.93;;;;;;;;;;6130785;23;20009;-72
2022/05/27 09:43:50;;;;;;;53.47;9.80;;;;;;;;;;6157122;23;20001;-70
2022/05/27 09:46:23;;;;;;;9.82;4.13;;;;;;;;;;6156918;23;20001;-71
2022/05/27 09:48:49;;;;;;;7.45;4.00;;;;;;;;;;6156718;23;20068;-70
2022/05/27 09:51:15;;;;;;;15.77;4.25;;;;;;;;;;6157039;23;20010;-73
2022/05/27 09:53:48;;;;;;;20.40;4.45;;;;;;;;;;6156819;23;20003;-73
2022/05/27 09:56:15;;;;;;;11.82;5.07;;;;;;;;;;6157095;23;20005;-73
2022/05/27 09:58:44;;;;;;;15.00;5.30;;;;;;;;;;6156851;23;19997;-73
2022/05/27 10:01:22;;;;;;;47.85;9.43;;;;;;;;;;6157020;23;20064;-73
2022/05/27 10:03:58;;;;;;;17.63;5.35;;;;;;;;;;6156770;23;19997;-72
2022/05/27 10:06:26;;;;;;;12.30;4.45;;;;;;;;;;6130314;23;20006;-69
2022/05/27 10:08:57;;;;;;;5.72;3.95;;;;;;;;;;6156900;23;20013;-69
2022/05/27 10:11:48;;;;;;;12.52;4.55;;;;;;;;;;6156932;23;20021;-69
2022/05/27 10:14:14;;;;;;;15.05;5.15;;;;;;;;;;6156960;23;20112;-72
2022/05/27 10:16:41;;;;;;;11.38;4.13;;;;;;;;;;6156802;23;20024;-73
2022/05/27 10:19:13;;;;;;;16.17;4.75;;;;;;;;;;6157064;23;20006;-73
2022/05/27 10:21:52;;;;;;;23.67;5.30;;;;;;;;;;6156429;23;20084;-73
2022/05/27 10:24:25;;;;;;;7.55;4.20;;;;;;;;;;6156675;23;20068;-73
2022/05/27 10:27:08;;;;;;;12.68;4.43;;;;;;;;;;6130835;23;20337;-73
2022/05/27 10:29:47;;;;;;;7.45;3.78;;;;;;;;;;6156579;23;20001;-73
2022/05/27 10:32:25;;;;;;;10.00;3.92;;;;;;;;;;6156151;23;20025;-73
2022/05/27 10:34:51;;;;;;;14.75;5.13;;;;;;;;;;6156556;23;20299;-74
2022/05/27 10:37:28;;;;;;;7.25;3.63;;;;;;;;;;6156517;23;20001;-72
2022/05/27 10:40:10;;;;;;;17.30;4.55;;;;;;;;;;6156460;23;20008;-73
2022/05/27 10:42:36;;;;;;;13.02;4.63;;;;;;;;;;6156710;23;20076;-70
2022/05/27 10:45:02;;;;;;;7.45;4.03;;;;;;;;;;6156202;23;20434;-74
2022/05/27 10:47:44;;;;;;;16.00;5.38;;;;;;;;;;6156314;23;20033;-73
2022/05/27 10:50:40;;;;;;;5.72;3.90;;;;;;;;;;6156264;23;20006;-73
2022/05/27 10:53:22;;;;;;;8.02;3.88;;;;;;;;;;6037484;23;20015;-73
2022/05/27 10:55:57;;;;;;;8.88;4.10;;;;;;;;;;6037605;23;20083;-73
2022/05/27 11:04:17;;;;;;;11.05;4.13;;;;;;;;;;6037636;23;20019;-73
2022/05/27 11:07:02;;;;;;;12.45;4.88;;;;;;;;;;6037337;23;20082;-73
2022/05/27 11:09:36;;;;;;;14.50;4.78;;;;;;;;;;6037486;23;20014;-73
2022/05/27 11:12:09;;;;;;;11.55;3.90;;;;;;;;;;6037049;23;20482;-73
2022/05/27 11:17:46;;;;;;;6.60;4.00;;;;;;;;;;6037454;23;20022;-73
2022/05/27 11:20:31;;;;;;;14.88;4.20;;;;;;;;;;6037262;23;20011;-73
2022/05/27 11:23:03;;;;;;;16.80;4.75;;;;;;;;;;6037423;23;20510;-73
2022/05/27 11:25:30;;;;;;;11.95;4.60;;;;;;;;;;6037124;23;20039;-73
2022/05/27 11:28:04;;;;;;;8.57;3.70;;;;;;;;;;6037039;23;20011;-73
2022/05/27 11:30:40;;;;;;;9.70;3.90;;;;;;;;;;6146654;23;20016;-73
2022/05/27 11:33:18;;;;;;;15.05;5.00;;;;;;;;;;6155868;23;20448;-73
2022/05/27 11:35:47;;;;;;;13.15;4.90;;;;;;;;;;6155790;23;20025;-74
2022/05/27 11:38:16;;;;;;;17.85;5.10;;;;;;;;;;6155821;23;20009;-73
2022/05/27 11:40:45;;;;;;;13.55;4.82;;;;;;;;;;6155774;23;20071;-73
2022/05/27 11:43:14;;;;;;;17.25;5.45;;;;;;;;;;6155758;23;20429;-73
2022/05/27 11:45:54;;;;;;;13.02;5.75;;;;;;;;;;6155983;23;19997;-71
2022/05/27 11:48:26;;;;;;;6.60;4.95;;;;;;;;;;6155496;23;20029;-73
2022/05/27 11:50:58;;;;;;;7.28;4.63;;;;;;;;;;6155744;23;20102;-72
2022/05/27 11:53:37;;;;;;;16.35;7.72;;;;;;;;;;6155927;23;20362;-73
2022/05/27 11:56:15;;;;;;;10.95;6.72;;;;;;;;;;6155617;23;20013;-73
2022/05/27 11:59:00;;;;;;;26.45;13.75;;;;;;;;;;6155624;23;20068;-73
2022/05/27 12:01:38;;;;;;;30.02;7.70;;;;;;;;;;6155869;23;19997;-73
2022/05/27 12:04:12;;;;;;;37.20;15.80;;;;;;;;;;6155522;23;20002;-73
2022/05/27 12:06:50;;;;;;;9.98;5.13;;;;;;;;;;6155865;23;20005;-74
2022/05/27 12:09:30;;;;;;;20.58;10.65;;;;;;;;;;6155628;23;20006;-73
2022/05/27 12:11:59;;;;;;;13.93;6.78;;;;;;;;;;6155819;23;20015;-74
2022/05/27 12:14:46;;;;;;;12.98;5.60;;;;;;;;;;6155699;23;20017;-73
2022/05/27 12:17:14;;;;;;;13.13;9.57;;;;;;;;;;6155681;23;20002;-73
2022/05/27 12:19:48;;;;;;;13.48;6.60;;;;;;;;;;6155297;23;19998;-74
2022/05/27 12:22:25;;;;;;;11.93;6.88;;;;;;;;;;6155755;23;20375;-73
2022/05/27 12:24:54;;;;;;;9.90;5.25;;;;;;;;;;6155674;23;20005;-74
2022/05/27 12:27:20;;;;;;;16.23;9.05;;;;;;;;;;6155457;23;19994;-73
2022/05/27 12:29:48;;;;;;;6.90;5.15;;;;;;;;;;6155370;23;20080;-75
2022/05/27 12:32:15;;;;;;;25.25;9.27;;;;;;;;;;6155304;23;20020;-75
2022/05/27 12:34:43;;;;;;;16.38;8.73;;;;;;;;;;6155437;23;20422;-65
2022/05/27 12:37:15;;;;;;;25.02;7.78;;;;;;;;;;6155357;23;20037;-70
2022/05/27 12:39:42;;;;;;;10.65;5.97;;;;;;;;;;6155481;23;20002;-73
2022/05/27 12:42:08;;;;;;;11.85;7.80;;;;;;;;;;6155696;23;20005;-69
2022/05/27 12:44:34;;;;;;;11.15;6.32;;;;;;;;;;6155402;23;20016;-70
2022/05/27 12:47:01;;;;;;;21.20;8.25;;;;;;;;;;6155476;23;20008;-68
2022/05/27 12:49:37;;;;;;;21.15;6.65;;;;;;;;;;6155311;23;20307;-71
2022/05/27 12:52:05;;;;;;;25.50;5.95;;;;;;;;;;6155333;23;20020;-66
2022/05/27 12:55:00;;;;;;;7.80;4.43;;;;;;;;;;6155438;23;19997;-69
2022/05/27 13:03:06;;;;;;;52.15;10.20;;;;;;;;;;6155086;23;20021;-70
2022/05/27 13:05:51;;;;;;;25.02;7.75;;;;;;;;;;6155566;23;20025;-70
2022/05/27 13:08:21;;;;;;;15.25;6.97;;;;;;;;;;6154975;23;20002;-70
2022/05/27 13:10:48;;;;;;;15.50;7.05;;;;;;;;;;6154962;23;20013;-72
2022/05/27 13:13:15;;;;;;;13.80;6.75;;;;;;;;;;6155599;23;20374;-70
2022/05/27 13:16:03;;;;;;;19.58;7.78;;;;;;;;;;6155448;23;20332;-72
2022/05/27 13:18:29;;;;;;;26.73;8.10;;;;;;;;;;6155072;23;20105;-73
2022/05/27 13:20:56;;;;;;;99.07;16.75;;;;;;;;;;6154955;23;20006;-73
2022/05/27 13:23:26;;;;;;;15.68;5.75;;;;;;;;;;6155061;23;20452;-73
2022/05/27 13:26:05;;;;;;;11.25;7.25;;;;;;;;;;6155006;23;20002;-73
2022/05/27 13:28:34;;;;;;;15.23;7.32;;;;;;;;;;6155457;23;20005;-70
2022/05/27 13:31:03;;;;;;;34.40;9.02;;;;;;;;;;6154759;23;20433;-68
2022/05/27 13:33:32;;;;;;;15.45;8.45;;;;;;;;;;6155027;23;20484;-71
2022/05/27 13:36:01;;;;;;;50.03;11.07;;;;;;;;;;6155404;23;20021;-73
2022/05/27 13:38:32;;;;;;;23.70;7.03;;;;;;;;;;6155248;23;20378;-72
2022/05/27 13:40:58;;;;;;;20.70;7.45;;;;;;;;;;6155462;23;20006;-73
2022/05/27 13:43:29;;;;;;;16.75;7.38;;;;;;;;;;6156746;23;20060;-70
2022/05/27 13:46:04;;;;;;;16.58;6.50;;;;;;;;;;6157438;23;20005;-67
2022/05/27 13:48:41;;;;;;;24.63;10.60;;;;;;;;;;6157005;23;20063;-69
2022/05/27 13:51:12;;;;;;;31.73;8.25;;;;;;;;;;6157074;23;20009;-72
2022/05/27 13:53:38;;;;;;;;;;;;;;;;;;6157390;23;20001;-72
2022/05/27 13:56:07;;;;;;;11.85;7.40;;;;;;;;;;6156780;23;19908;-72
2022/05/27 13:58:35;;;;;;;13.98;6.50;;;;;;;;;;6156812;23;20056;-65
2022/05/27 14:01:03;;;;;;;10.23;5.43;;;;;;;;;;6156857;23;20333;-72
2022/05/27 14:03:52;;;;;;;19.75;6.53;;;;;;;;;;6156721;23;20001;-71
2022/05/27 14:06:32;;;;;;;12.25;6.03;;;;;;;;;;6037991;23;20419;-73
2022/05/27 14:09:09;;;;;;;8.55;6.47;;;;;;;;;;6038006;23;20007;-71
2022/05/27 14:11:35;;;;;;;15.05;7.18;;;;;;;;;;6037745;23;20503;-68
2022/05/27 14:14:02;;;;;;;11.02;6.30;;;;;;;;;;6037951;23;20015;-71
2022/05/27 14:16:30;;;;;;;7.25;5.05;;;;;;;;;;6037951;23;20007;-69
2022/05/27 14:18:57;;;;;;;10.52;6.40;;;;;;;;;;6037839;23;20026;-72
2022/05/27 14:24:18;;;;;;;13.88;6.00;;;;;;;;;;6037733;23;20453;-70
2022/05/27 14:26:44;;;;;;;7.43;6.07;;;;;;;;;;6038056;23;20042;-71
2022/05/27 14:29:13;;;;;;;8.23;5.45;;;;;;;;;;6037855;23;20003;-72
2022/05/27 14:31:40;;;;;;;13.77;6.50;;;;;;;;;;6020919;23;20019;-69
2022/05/27 14:34:10;;;;;;;12.90;6.70;;;;;;;;;;6009334;23;20065;-68
2022/05/27 14:36:40;;;;;;;16.83;7.05;;;;;;;;;;6009275;23;20084;-70
2022/05/27 14:39:07;;;;;;;18.05;7.00;;;;;;;;;;6009081;23;20454;-70
2022/05/27 14:41:42;;;;;;;11.68;6.18;;;;;;;;;;6009091;23;20012;-71
2022/05/27 14:44:18;;;;;;;15.13;6.28;;;;;;;;;;6110419;23;20014;-70
2022/05/27 14:47:00;;;;;;;9.48;5.80;;;;;;;;;;6126907;23;20004;-71
2022/05/27 14:49:28;;;;;;;12.60;6.18;;;;;;;;;;6126871;23;19998;-71
2022/05/27 14:51:54;;;;;;;17.08;6.55;;;;;;;;;;6127131;23;20024;-73
2022/05/27 14:54:26;;;;;;;12.48;5.55;;;;;;;;;;6126632;23;20005;-71
2022/05/27 14:57:11;;;;;;;8.50;5.57;;;;;;;;;;6127119;23;20010;-70
2022/05/27 14:59:38;;;;;;;11.88;6.53;;;;;;;;;;6126669;23;20012;-73
2022/05/27 15:02:04;;;;;;;15.88;6.28;;;;;;;;;;6100369;23;20089;-71